Time;durP1;ratioP1;P1;durP2;ratioP2;P2;SDS_P1;SDS_P2;PMS_P1;PMS_P2;Temp;Humidity;BMP_temperature;BMP_pressure;BME280_temperature;BME280_humidity;BME280_pressure;Samples;Min_cycle;Max_cycle;Signal;HPM_P1;HPM_P2
2023/12/08 00:01:40;;;;;;;10.23;9.25;;;;;;;;;;5085842;28;20380;-81
2023/12/08 00:04:06;;;;;;;9.80;8.90;;;;;;;;;;5086455;28;20383;-80
2023/12/08 00:06:32;;;;;;;9.65;8.75;;;;;;;;;;5085338;28;20861;-80
2023/12/08 00:08:58;;;;;;;10.88;9.88;;;;;;;;;;5086130;28;20456;-81
2023/12/08 00:11:24;;;;;;;10.80;9.57;;;;;;;;;;5085650;28;20379;-80
2023/12/08 00:13:50;;;;;;;10.00;9.10;;;;;;;;;;5083142;28;20449;-81
2023/12/08 00:16:16;;;;;;;10.07;9.10;;;;;;;;;;5082281;28;20418;-80
2023/12/08 00:18:42;;;;;;;10.83;9.77;;;;;;;;;;5082612;28;20419;-80
2023/12/08 00:21:07;;;;;;;11.15;10.05;;;;;;;;;;5082343;28;20388;-80
2023/12/08 00:23:34;;;;;;;9.95;8.82;;;;;;;;;;5083299;28;20409;-81
2023/12/08 00:26:00;;;;;;;10.35;9.35;;;;;;;;;;5082879;28;20391;-80
2023/12/08 00:28:26;;;;;;;10.15;9.15;;;;;;;;;;5082390;28;20376;-80
2023/12/08 00:30:52;;;;;;;10.60;9.60;;;;;;;;;;5083086;28;20382;-81
2023/12/08 00:33:18;;;;;;;10.32;9.25;;;;;;;;;;5082391;28;20432;-80
2023/12/08 00:35:44;;;;;;;9.85;8.95;;;;;;;;;;5082773;28;20467;-81
2023/12/08 00:38:11;;;;;;;10.63;9.63;;;;;;;;;;5082744;28;20441;-80
2023/12/08 00:40:37;;;;;;;10.02;9.15;;;;;;;;;;5082968;28;20944;-81
2023/12/08 00:43:03;;;;;;;10.18;9.27;;;;;;;;;;5082648;28;20383;-80
2023/12/08 00:45:29;;;;;;;10.60;9.63;;;;;;;;;;5082075;28;20900;-81
2023/12/08 00:47:55;;;;;;;10.32;9.43;;;;;;;;;;5081847;28;20411;-80
2023/12/08 00:50:21;;;;;;;11.18;10.18;;;;;;;;;;5081557;28;20433;-81
2023/12/08 00:52:46;;;;;;;10.40;9.40;;;;;;;;;;5082379;28;20734;-80
2023/12/08 00:55:13;;;;;;;10.30;9.50;;;;;;;;;;5081564;28;20426;-80
2023/12/08 00:57:39;;;;;;;10.50;9.55;;;;;;;;;;5082008;28;20411;-80
2023/12/08 01:00:05;;;;;;;10.63;9.63;;;;;;;;;;5081784;28;20428;-80
2023/12/08 01:02:31;;;;;;;10.68;9.63;;;;;;;;;;5082019;28;20384;-80
2023/12/08 01:04:57;;;;;;;11.10;10.10;;;;;;;;;;5081419;28;20510;-80
2023/12/08 01:07:23;;;;;;;11.20;10.18;;;;;;;;;;5081302;28;20386;-80
2023/12/08 01:09:49;;;;;;;11.05;10.05;;;;;;;;;;5081418;28;20837;-81
2023/12/08 01:12:15;;;;;;;11.18;10.07;;;;;;;;;;5073433;28;20401;-80
2023/12/08 01:14:41;;;;;;;10.65;9.55;;;;;;;;;;5077388;28;20380;-80
2023/12/08 01:17:07;;;;;;;11.35;10.27;;;;;;;;;;5081160;28;20418;-80
2023/12/08 01:19:33;;;;;;;10.40;9.50;;;;;;;;;;5080683;28;20926;-81
2023/12/08 01:21:59;;;;;;;10.70;9.70;;;;;;;;;;5081617;28;20376;-80
2023/12/08 01:24:25;;;;;;;10.40;9.40;;;;;;;;;;5081137;28;20414;-81
2023/12/08 01:26:51;;;;;;;10.75;9.85;;;;;;;;;;5080664;28;20845;-81
2023/12/08 01:29:17;;;;;;;10.63;9.73;;;;;;;;;;5081816;28;20403;-81
2023/12/08 01:31:43;;;;;;;10.70;9.70;;;;;;;;;;5080813;28;20371;-80
2023/12/08 01:34:09;;;;;;;10.73;9.73;;;;;;;;;;5080913;28;20395;-80
2023/12/08 01:36:35;;;;;;;10.85;9.82;;;;;;;;;;5081248;28;20395;-81
2023/12/08 01:39:01;;;;;;;10.63;9.68;;;;;;;;;;5081080;28;20406;-81
2023/12/08 01:41:26;;;;;;;11.33;10.20;;;;;;;;;;5081540;28;20371;-80
2023/12/08 01:43:52;;;;;;;10.27;9.38;;;;;;;;;;5080627;28;20757;-80
2023/12/08 01:46:19;;;;;;;10.05;9.15;;;;;;;;;;5081475;28;20380;-80
2023/12/08 01:48:46;;;;;;;10.90;9.80;;;;;;;;;;5080682;28;20518;-80
2023/12/08 01:51:14;;;;;;;11.27;10.13;;;;;;;;;;5080829;28;20494;-80
2023/12/08 01:53:40;;;;;;;11.25;10.20;;;;;;;;;;5080838;28;20514;-80
2023/12/08 01:56:08;;;;;;;10.50;9.60;;;;;;;;;;5080907;28;20391;-81
2023/12/08 01:58:34;;;;;;;10.32;9.32;;;;;;;;;;5080980;28;20403;-80
2023/12/08 02:01:03;;;;;;;10.30;9.40;;;;;;;;;;5080431;28;20375;-80
2023/12/08 02:03:29;;;;;;;10.63;9.65;;;;;;;;;;5077284;28;20418;-81
2023/12/08 02:05:55;;;;;;;10.40;9.40;;;;;;;;;;5079552;28;20445;-80
2023/12/08 02:08:21;;;;;;;10.50;9.60;;;;;;;;;;5089127;28;20431;-81
2023/12/08 02:10:47;;;;;;;10.65;9.65;;;;;;;;;;5100317;28;20400;-80
2023/12/08 02:13:16;;;;;;;10.25;9.35;;;;;;;;;;5100360;28;20381;-81
2023/12/08 02:15:42;;;;;;;10.85;9.93;;;;;;;;;;5080196;28;20835;-80
2023/12/08 02:18:09;;;;;;;11.05;9.98;;;;;;;;;;5079625;28;20413;-80
2023/12/08 02:20:35;;;;;;;11.73;10.52;;;;;;;;;;5080400;28;20426;-81
2023/12/08 02:23:05;;;;;;;10.45;9.45;;;;;;;;;;5080561;28;20471;-80
2023/12/08 02:25:31;;;;;;;10.50;9.50;;;;;;;;;;5080115;28;20440;-80
2023/12/08 02:27:57;;;;;;;10.70;9.70;;;;;;;;;;5080028;28;20865;-81
2023/12/08 02:30:23;;;;;;;11.32;10.23;;;;;;;;;;5079770;28;20425;-80
2023/12/08 02:33:08;;;;;;;10.20;9.30;;;;;;;;;;5079985;28;20383;-80
2023/12/08 02:35:36;;;;;;;11.05;10.15;;;;;;;;;;5080617;28;20387;-80
2023/12/08 02:38:03;;;;;;;10.77;9.73;;;;;;;;;;5079103;28;20407;-80
2023/12/08 02:40:29;;;;;;;11.60;10.40;;;;;;;;;;5079988;28;20449;-80
2023/12/08 02:42:55;;;;;;;10.67;9.77;;;;;;;;;;5080138;28;20868;-80
2023/12/08 02:45:21;;;;;;;11.40;10.40;;;;;;;;;;5079255;28;20376;-81
2023/12/08 02:47:47;;;;;;;11.63;10.63;;;;;;;;;;5080111;28;20817;-80
2023/12/08 02:50:13;;;;;;;11.45;10.45;;;;;;;;;;5079612;28;20391;-80
2023/12/08 02:52:39;;;;;;;11.68;10.57;;;;;;;;;;5079722;28;20376;-80
2023/12/08 02:55:05;;;;;;;12.05;10.90;;;;;;;;;;5079707;28;20388;-80
2023/12/08 02:57:31;;;;;;;11.70;10.60;;;;;;;;;;5079381;28;20402;-81
2023/12/08 02:59:57;;;;;;;11.40;10.30;;;;;;;;;;5079745;28;20376;-80
2023/12/08 03:02:23;;;;;;;11.20;10.20;;;;;;;;;;5078108;28;20396;-80
2023/12/08 03:04:49;;;;;;;11.55;10.48;;;;;;;;;;5079514;28;20394;-80
2023/12/08 03:07:15;;;;;;;12.15;10.95;;;;;;;;;;5079322;28;20725;-80
2023/12/08 03:09:41;;;;;;;12.88;11.60;;;;;;;;;;5080723;28;20376;-80
2023/12/08 03:12:07;;;;;;;13.93;12.48;;;;;;;;;;5079929;28;20387;-80
2023/12/08 03:14:33;;;;;;;13.10;11.90;;;;;;;;;;5079420;28;20395;-80
2023/12/08 03:16:59;;;;;;;13.40;12.00;;;;;;;;;;5079450;28;20741;-81
2023/12/08 03:19:25;;;;;;;12.95;11.75;;;;;;;;;;5079730;28;20418;-80
2023/12/08 03:21:51;;;;;;;13.95;12.52;;;;;;;;;;5079174;28;20372;-80
2023/12/08 03:24:17;;;;;;;14.77;12.73;;;;;;;;;;5079433;28;21000;-80
2023/12/08 03:26:44;;;;;;;13.43;12.02;;;;;;;;;;5080060;28;20413;-80
2023/12/08 03:29:10;;;;;;;13.57;11.38;;;;;;;;;;5078936;28;20846;-80
2023/12/08 03:31:36;;;;;;;13.30;11.93;;;;;;;;;;5078804;28;20388;-81
2023/12/08 03:34:02;;;;;;;12.03;10.93;;;;;;;;;;5079279;28;20382;-80
2023/12/08 03:36:27;;;;;;;11.50;10.38;;;;;;;;;;5078390;28;20722;-80
2023/12/08 03:38:53;;;;;;;11.70;10.60;;;;;;;;;;5079285;28;20403;-80
2023/12/08 03:41:19;;;;;;;12.25;11.10;;;;;;;;;;5078973;28;20865;-80
2023/12/08 03:43:45;;;;;;;11.43;10.43;;;;;;;;;;5078971;28;20410;-80
2023/12/08 03:46:11;;;;;;;11.25;10.15;;;;;;;;;;5078402;28;20391;-80
2023/12/08 03:48:37;;;;;;;11.13;10.13;;;;;;;;;;5078180;28;20419;-80
2023/12/08 03:51:04;;;;;;;11.32;10.23;;;;;;;;;;5081628;28;20391;-80
2023/12/08 03:53:30;;;;;;;11.35;10.27;;;;;;;;;;5082056;28;20394;-80
2023/12/08 03:55:56;;;;;;;11.57;10.48;;;;;;;;;;5082264;28;20380;-81
2023/12/08 03:58:22;;;;;;;11.63;10.57;;;;;;;;;;5081759;28;20403;-81
2023/12/08 04:00:48;;;;;;;11.15;10.15;;;;;;;;;;5081392;28;20884;-81
2023/12/08 04:03:14;;;;;;;10.80;9.90;;;;;;;;;;5064117;28;20463;-81
2023/12/08 04:05:40;;;;;;;11.68;10.57;;;;;;;;;;5062236;28;20817;-81
2023/12/08 04:08:06;;;;;;;11.37;10.37;;;;;;;;;;5064056;28;20450;-81
2023/12/08 04:10:32;;;;;;;11.85;10.75;;;;;;;;;;5082188;28;20391;-81
2023/12/08 04:12:58;;;;;;;12.07;10.97;;;;;;;;;;5081612;28;20383;-81
2023/12/08 04:15:24;;;;;;;11.88;10.77;;;;;;;;;;5081622;28;20749;-80
2023/12/08 04:17:50;;;;;;;12.07;10.88;;;;;;;;;;5082601;28;20485;-81
2023/12/08 04:20:19;;;;;;;11.10;10.10;;;;;;;;;;5082134;28;20404;-81
2023/12/08 04:22:45;;;;;;;10.80;9.82;;;;;;;;;;5063314;28;20835;-80
2023/12/08 04:25:15;;;;;;;11.65;10.55;;;;;;;;;;5081422;28;20391;-81
2023/12/08 04:27:41;;;;;;;14.27;11.87;;;;;;;;;;5082486;28;20422;-80
2023/12/08 04:30:07;;;;;;;12.82;11.63;;;;;;;;;;5081130;28;20380;-82
2023/12/08 04:32:33;;;;;;;11.93;10.77;;;;;;;;;;5081961;28;20392;-80
2023/12/08 04:34:59;;;;;;;11.15;10.15;;;;;;;;;;5081075;28;20465;-81
2023/12/08 04:37:26;;;;;;;11.52;10.52;;;;;;;;;;5081267;28;20407;-81
2023/12/08 04:39:52;;;;;;;10.68;9.77;;;;;;;;;;5081442;28;20400;-80
2023/12/08 04:42:18;;;;;;;11.38;10.38;;;;;;;;;;5082298;28;20384;-79
2023/12/08 04:44:44;;;;;;;13.07;11.80;;;;;;;;;;5081574;28;20443;-81
2023/12/08 04:47:10;;;;;;;13.43;12.15;;;;;;;;;;5081722;28;20475;-80
2023/12/08 04:49:36;;;;;;;13.20;12.00;;;;;;;;;;5082123;28;20863;-80
2023/12/08 04:52:04;;;;;;;13.90;12.50;;;;;;;;;;5081757;28;20518;-81
2023/12/08 04:54:30;;;;;;;14.77;13.38;;;;;;;;;;5081514;28;20411;-80
2023/12/08 04:56:56;;;;;;;15.20;13.70;;;;;;;;;;5081619;28;20388;-81
2023/12/08 04:59:22;;;;;;;19.63;16.30;;;;;;;;;;5081692;28;20372;-80
2023/12/08 05:01:51;;;;;;;17.90;15.13;;;;;;;;;;5081055;28;20838;-80
2023/12/08 05:04:18;;;;;;;17.25;15.18;;;;;;;;;;5081601;28;20412;-80
2023/12/08 05:06:44;;;;;;;19.42;16.17;;;;;;;;;;5081964;28;20395;-80
2023/12/08 05:09:13;;;;;;;20.85;16.92;;;;;;;;;;5081333;28;20388;-80
2023/12/08 05:11:39;;;;;;;36.47;23.00;;;;;;;;;;5081296;28;20507;-80
2023/12/08 05:14:05;;;;;;;32.25;21.15;;;;;;;;;;5081156;28;20388;-80
2023/12/08 05:16:31;;;;;;;29.50;20.33;;;;;;;;;;5081018;28;20446;-80
2023/12/08 05:18:57;;;;;;;24.38;18.30;;;;;;;;;;5081329;28;20506;-81
2023/12/08 05:21:24;;;;;;;21.35;17.30;;;;;;;;;;5081140;28;20379;-80
2023/12/08 05:23:50;;;;;;;21.08;17.40;;;;;;;;;;5081641;28;20453;-81
2023/12/08 05:26:16;;;;;;;21.63;16.47;;;;;;;;;;5080904;28;20380;-81
2023/12/08 05:28:42;;;;;;;19.92;16.83;;;;;;;;;;5080810;28;20387;-80
2023/12/08 05:31:08;;;;;;;19.45;17.15;;;;;;;;;;5081241;28;20463;-80
2023/12/08 05:33:34;;;;;;;19.88;17.15;;;;;;;;;;5080182;28;20928;-80
2023/12/08 05:36:00;;;;;;;18.88;16.85;;;;;;;;;;5081205;28;20384;-80
2023/12/08 05:38:26;;;;;;;18.70;16.67;;;;;;;;;;5081061;28;20804;-80
2023/12/08 05:40:52;;;;;;;19.20;17.10;;;;;;;;;;5080109;28;20371;-80
2023/12/08 05:43:18;;;;;;;21.27;17.60;;;;;;;;;;5080355;28;20437;-80
2023/12/08 05:45:44;;;;;;;22.73;18.30;;;;;;;;;;5080418;28;20379;-80
2023/12/08 05:48:11;;;;;;;21.52;17.55;;;;;;;;;;5080445;28;20408;-80
2023/12/08 05:50:37;;;;;;;21.40;18.58;;;;;;;;;;5080840;28;20718;-80
2023/12/08 05:53:03;;;;;;;24.95;20.20;;;;;;;;;;5081243;28;20415;-80
2023/12/08 05:55:29;;;;;;;25.60;20.50;;;;;;;;;;5080717;28;20376;-80
2023/12/08 05:57:55;;;;;;;27.48;20.77;;;;;;;;;;5080648;28;20411;-81
2023/12/08 06:00:21;;;;;;;24.42;20.38;;;;;;;;;;5080121;28;20395;-80
2023/12/08 06:02:47;;;;;;;29.55;22.52;;;;;;;;;;5080345;28;20732;-80
2023/12/08 06:05:13;;;;;;;28.03;21.87;;;;;;;;;;5076898;28;20387;-80
2023/12/08 06:07:39;;;;;;;28.83;22.52;;;;;;;;;;5060004;28;20409;-80
2023/12/08 06:10:07;;;;;;;28.33;21.88;;;;;;;;;;5073260;28;20384;-80
2023/12/08 06:12:33;;;;;;;26.17;20.73;;;;;;;;;;5079120;28;20467;-80
2023/12/08 06:15:00;;;;;;;28.15;20.73;;;;;;;;;;5080105;28;20379;-80
2023/12/08 06:17:26;;;;;;;33.30;23.05;;;;;;;;;;5079901;28;20406;-80
2023/12/08 06:19:53;;;;;;;30.55;22.13;;;;;;;;;;5079771;28;20454;-80
2023/12/08 06:22:19;;;;;;;30.10;22.30;;;;;;;;;;5080695;28;20427;-80
2023/12/08 06:24:45;;;;;;;31.70;22.08;;;;;;;;;;5079792;28;20384;-80
2023/12/08 06:27:11;;;;;;;35.78;24.23;;;;;;;;;;5079661;28;20725;-80
2023/12/08 06:29:37;;;;;;;39.83;25.13;;;;;;;;;;5080311;28;20461;-81
2023/12/08 06:32:03;;;;;;;36.40;25.10;;;;;;;;;;5080020;28;20777;-80
2023/12/08 06:34:29;;;;;;;36.55;24.40;;;;;;;;;;5080307;28;20387;-81
2023/12/08 06:36:55;;;;;;;33.73;24.43;;;;;;;;;;5079798;28;20375;-81
2023/12/08 06:39:21;;;;;;;34.65;25.10;;;;;;;;;;5079758;28;20857;-81
2023/12/08 06:41:47;;;;;;;32.95;23.63;;;;;;;;;;5079511;28;20446;-81
2023/12/08 06:44:13;;;;;;;32.80;23.92;;;;;;;;;;5080602;28;20376;-81
2023/12/08 06:46:39;;;;;;;30.38;22.98;;;;;;;;;;5079877;28;20431;-80
2023/12/08 06:49:05;;;;;;;28.17;22.42;;;;;;;;;;5079910;28;20391;-80
2023/12/08 06:51:34;;;;;;;31.87;23.37;;;;;;;;;;5079505;28;20825;-80
2023/12/08 06:54:02;;;;;;;27.13;21.55;;;;;;;;;;5079337;28;20467;-81
2023/12/08 06:56:28;;;;;;;29.25;22.40;;;;;;;;;;5079540;28;20403;-80
2023/12/08 06:58:53;;;;;;;27.33;21.65;;;;;;;;;;5079130;28;20416;-80
2023/12/08 07:01:19;;;;;;;27.87;21.50;;;;;;;;;;5079735;28;20431;-80
2023/12/08 07:03:47;;;;;;;27.20;21.60;;;;;;;;;;5079885;28;20387;-80
2023/12/08 07:06:13;;;;;;;30.23;23.38;;;;;;;;;;5079051;28;20987;-80
2023/12/08 07:08:39;;;;;;;28.02;22.20;;;;;;;;;;5079231;28;20383;-80
2023/12/08 07:11:05;;;;;;;33.25;23.05;;;;;;;;;;5078181;28;20415;-80
2023/12/08 07:13:31;;;;;;;29.30;22.25;;;;;;;;;;5065732;28;20731;-80
2023/12/08 07:15:57;;;;;;;26.43;21.03;;;;;;;;;;5058658;28;20377;-80
2023/12/08 07:18:23;;;;;;;25.88;20.90;;;;;;;;;;5058479;28;20466;-81
2023/12/08 07:20:50;;;;;;;26.40;21.00;;;;;;;;;;5057294;28;20717;-81
2023/12/08 07:23:16;;;;;;;26.58;21.63;;;;;;;;;;5059984;28;20374;-81
2023/12/08 07:25:42;;;;;;;28.67;22.15;;;;;;;;;;5063105;28;20739;-81
2023/12/08 07:28:08;;;;;;;26.80;21.23;;;;;;;;;;5063671;28;20480;-81
2023/12/08 07:30:34;;;;;;;31.83;22.00;;;;;;;;;;5062719;28;20385;-81
2023/12/08 07:33:00;;;;;;;28.95;21.77;;;;;;;;;;5062425;28;20388;-81
2023/12/08 07:35:26;;;;;;;31.13;23.43;;;;;;;;;;5062342;28;20480;-81
2023/12/08 07:37:52;;;;;;;29.85;22.30;;;;;;;;;;5062662;28;20448;-81
2023/12/08 07:40:18;;;;;;;29.38;22.23;;;;;;;;;;5062982;28;20389;-81
2023/12/08 07:42:44;;;;;;;27.20;20.88;;;;;;;;;;5061703;28;20381;-81
2023/12/08 07:45:11;;;;;;;28.58;21.05;;;;;;;;;;5061673;28;20460;-79
2023/12/08 07:47:40;;;;;;;25.70;21.10;;;;;;;;;;5061770;28;20981;-79
2023/12/08 07:50:07;;;;;;;26.08;20.10;;;;;;;;;;5062759;28;20456;-79
2023/12/08 07:52:33;;;;;;;26.23;20.20;;;;;;;;;;5061982;28;20415;-81
2023/12/08 07:54:59;;;;;;;23.97;19.73;;;;;;;;;;5062263;28;20385;-81
2023/12/08 07:57:25;;;;;;;21.65;17.92;;;;;;;;;;5063037;28;20408;-82
2023/12/08 07:59:51;;;;;;;20.77;17.75;;;;;;;;;;5081444;28;20841;-81
2023/12/08 08:02:17;;;;;;;23.38;18.90;;;;;;;;;;5082610;28;20387;-81
2023/12/08 08:04:43;;;;;;;22.13;18.17;;;;;;;;;;5082815;28;20384;-81
2023/12/08 08:07:08;;;;;;;22.63;18.97;;;;;;;;;;5082042;28;20388;-81
2023/12/08 08:09:34;;;;;;;22.00;18.45;;;;;;;;;;5082670;28;20406;-81
2023/12/08 08:12:02;;;;;;;26.08;20.42;;;;;;;;;;5082525;28;20376;-81
2023/12/08 08:14:28;;;;;;;24.08;19.55;;;;;;;;;;5080183;28;20453;-81
2023/12/08 08:16:54;;;;;;;24.55;19.92;;;;;;;;;;5079752;28;20384;-81
2023/12/08 08:19:20;;;;;;;24.55;19.90;;;;;;;;;;5080103;28;20468;-81
2023/12/08 08:21:46;;;;;;;22.67;18.25;;;;;;;;;;5079667;28;20384;-81
2023/12/08 08:24:12;;;;;;;20.88;18.35;;;;;;;;;;5079097;28;20372;-80
2023/12/08 08:26:42;;;;;;;24.98;19.27;;;;;;;;;;5080294;28;20375;-81
2023/12/08 08:29:08;;;;;;;29.38;21.15;;;;;;;;;;5080324;28;20872;-81
2023/12/08 08:31:34;;;;;;;32.22;21.92;;;;;;;;;;5079626;28;20387;-80
2023/12/08 08:34:00;;;;;;;35.45;23.10;;;;;;;;;;5079393;28;20863;-80
2023/12/08 08:36:26;;;;;;;32.25;22.65;;;;;;;;;;5078363;28;20415;-81
2023/12/08 08:38:52;;;;;;;32.40;23.10;;;;;;;;;;5079348;28;20399;-81
2023/12/08 08:41:18;;;;;;;37.53;26.87;;;;;;;;;;5078758;28;20376;-81
2023/12/08 08:43:44;;;;;;;33.00;24.52;;;;;;;;;;5079534;28;20394;-81
2023/12/08 08:46:10;;;;;;;35.20;25.27;;;;;;;;;;5078847;28;20384;-81
2023/12/08 08:48:36;;;;;;;28.50;22.63;;;;;;;;;;5078625;28;20408;-81
2023/12/08 08:51:02;;;;;;;29.33;22.27;;;;;;;;;;5079046;28;20388;-81
2023/12/08 08:53:29;;;;;;;26.02;20.83;;;;;;;;;;5078869;28;20380;-81
2023/12/08 08:55:55;;;;;;;26.70;19.95;;;;;;;;;;5078570;28;20386;-81
2023/12/08 08:58:21;;;;;;;21.63;18.30;;;;;;;;;;5078537;28;20920;-81
2023/12/08 09:00:47;;;;;;;24.35;19.58;;;;;;;;;;5079404;28;20441;-81
2023/12/08 09:03:13;;;;;;;23.93;18.97;;;;;;;;;;5078708;28;20872;-81
2023/12/08 09:05:41;;;;;;;27.23;20.90;;;;;;;;;;5078791;28;20864;-81
2023/12/08 09:08:08;;;;;;;25.48;19.70;;;;;;;;;;5079252;28;20372;-81
2023/12/08 09:10:34;;;;;;;24.30;18.95;;;;;;;;;;5079159;28;20388;-81
2023/12/08 09:13:00;;;;;;;24.80;19.23;;;;;;;;;;5079245;28;20449;-81
2023/12/08 09:15:26;;;;;;;25.60;19.48;;;;;;;;;;5078925;28;20391;-81
2023/12/08 09:17:52;;;;;;;27.17;20.90;;;;;;;;;;5078637;28;20403;-81
2023/12/08 09:20:18;;;;;;;33.15;23.75;;;;;;;;;;5078937;28;20378;-81
2023/12/08 09:22:45;;;;;;;28.43;22.03;;;;;;;;;;5078627;28;20376;-81
2023/12/08 09:25:11;;;;;;;29.00;21.70;;;;;;;;;;5078874;28;20405;-81
2023/12/08 09:27:37;;;;;;;26.88;20.58;;;;;;;;;;5078871;28;20445;-81
2023/12/08 09:30:03;;;;;;;25.08;19.35;;;;;;;;;;5079057;28;20383;-81
2023/12/08 09:32:29;;;;;;;23.67;19.42;;;;;;;;;;5078481;28;20425;-81
2023/12/08 09:34:55;;;;;;;23.80;18.58;;;;;;;;;;5079090;28;20463;-81
2023/12/08 09:37:21;;;;;;;24.77;19.43;;;;;;;;;;5078750;28;20411;-81
2023/12/08 09:39:47;;;;;;;21.17;18.42;;;;;;;;;;5078469;28;20376;-81
2023/12/08 09:42:31;;;;;;;19.80;17.20;;;;;;;;;;5078405;28;20478;-81
2023/12/08 09:44:57;;;;;;;25.08;19.95;;;;;;;;;;5078973;28;20794;-81
2023/12/08 09:47:23;;;;;;;25.92;20.42;;;;;;;;;;5078219;28;20411;-81
2023/12/08 09:49:50;;;;;;;26.33;20.60;;;;;;;;;;5079026;28;20380;-81
2023/12/08 09:52:16;;;;;;;24.52;19.55;;;;;;;;;;5077550;28;20883;-81
2023/12/08 09:54:45;;;;;;;22.60;18.80;;;;;;;;;;5077453;28;20745;-81
2023/12/08 09:57:13;;;;;;;20.65;18.13;;;;;;;;;;5077883;28;20475;-81
2023/12/08 09:59:39;;;;;;;22.95;18.67;;;;;;;;;;5077897;28;20423;-81
2023/12/08 10:02:08;;;;;;;23.80;18.40;;;;;;;;;;5077608;28;20376;-81
2023/12/08 10:04:35;;;;;;;22.98;18.50;;;;;;;;;;5076981;28;20425;-81
2023/12/08 10:07:05;;;;;;;21.38;17.50;;;;;;;;;;5075533;28;20750;-81
2023/12/08 10:09:32;;;;;;;22.35;18.02;;;;;;;;;;5077723;28;20379;-81
2023/12/08 10:11:58;;;;;;;22.30;18.05;;;;;;;;;;5077824;28;20382;-81
2023/12/08 10:14:29;;;;;;;19.90;17.42;;;;;;;;;;5077862;28;20950;-81
2023/12/08 10:16:55;;;;;;;21.25;17.80;;;;;;;;;;5078031;28;20383;-81
2023/12/08 10:19:21;;;;;;;21.35;17.38;;;;;;;;;;5077210;28;20408;-81
2023/12/08 10:22:00;;;;;;;21.50;17.92;;;;;;;;;;5078225;28;20372;-81
2023/12/08 10:24:33;;;;;;;20.05;17.50;;;;;;;;;;5077381;28;20404;-81
2023/12/08 10:26:59;;;;;;;20.03;17.13;;;;;;;;;;5078127;28;20433;-81
2023/12/08 10:29:31;;;;;;;19.83;17.50;;;;;;;;;;5078128;28;20733;-81
2023/12/08 10:31:58;;;;;;;21.38;18.38;;;;;;;;;;5078383;28;20869;-81
2023/12/08 10:34:24;;;;;;;21.58;18.33;;;;;;;;;;5077527;28;20873;-81
2023/12/08 10:36:50;;;;;;;22.13;18.13;;;;;;;;;;5077760;28;20391;-81
2023/12/08 10:39:17;;;;;;;18.05;15.98;;;;;;;;;;5078207;28;20411;-81
2023/12/08 10:41:43;;;;;;;20.98;16.73;;;;;;;;;;5077108;28;20421;-81
2023/12/08 10:44:09;;;;;;;23.90;18.20;;;;;;;;;;5077858;28;20387;-81
2023/12/08 10:46:36;;;;;;;22.55;18.45;;;;;;;;;;5077537;28;20904;-81
2023/12/08 10:49:02;;;;;;;20.92;17.33;;;;;;;;;;5078071;28;20799;-81
2023/12/08 10:51:29;;;;;;;22.13;17.83;;;;;;;;;;5077603;28;20760;-81
2023/12/08 10:53:57;;;;;;;21.83;17.13;;;;;;;;;;5078127;28;20380;-81
2023/12/08 10:56:23;;;;;;;20.50;17.02;;;;;;;;;;5077954;28;20500;-81
2023/12/08 10:59:03;;;;;;;20.40;17.07;;;;;;;;;;5077733;28;20403;-81
2023/12/08 11:01:31;;;;;;;21.63;17.40;;;;;;;;;;5077728;28;20388;-81
2023/12/08 11:04:01;;;;;;;26.08;19.92;;;;;;;;;;5077235;28;20964;-81
2023/12/08 11:06:33;;;;;;;33.20;23.88;;;;;;;;;;5077807;28;20890;-81
2023/12/08 11:09:06;;;;;;;31.20;23.33;;;;;;;;;;5078234;28;20387;-81
2023/12/08 11:11:32;;;;;;;30.35;22.40;;;;;;;;;;5078555;28;20703;-82
2023/12/08 11:14:21;;;;;;;28.88;21.67;;;;;;;;;;5078039;28;20788;-81
2023/12/08 11:16:57;;;;;;;30.10;21.70;;;;;;;;;;5076569;28;20403;-81
2023/12/08 11:19:23;;;;;;;33.60;22.67;;;;;;;;;;5078868;28;20404;-81
2023/12/08 11:21:49;;;;;;;23.27;19.63;;;;;;;;;;5077995;28;20424;-82
2023/12/08 11:24:15;;;;;;;23.25;19.10;;;;;;;;;;5078284;28;20386;-81
2023/12/08 11:26:41;;;;;;;22.48;18.90;;;;;;;;;;5077523;28;20442;-81
2023/12/08 11:29:19;;;;;;;20.02;17.92;;;;;;;;;;5077988;28;20384;-81
2023/12/08 11:31:49;;;;;;;33.58;25.33;;;;;;;;;;5078178;28;20387;-81
2023/12/08 11:34:18;;;;;;;37.37;25.60;;;;;;;;;;5077107;28;20434;-81
2023/12/08 11:36:45;;;;;;;35.83;25.13;;;;;;;;;;5076696;28;20398;-81
2023/12/08 11:39:29;;;;;;;33.00;24.00;;;;;;;;;;5077041;28;20903;-81
2023/12/08 11:41:56;;;;;;;32.72;24.05;;;;;;;;;;5076758;28;20458;-81
2023/12/08 11:44:22;;;;;;;33.88;24.05;;;;;;;;;;5077809;28;20436;-80
2023/12/08 11:46:52;;;;;;;34.07;24.40;;;;;;;;;;5077747;28;20413;-80
2023/12/08 11:49:18;;;;;;;34.05;24.33;;;;;;;;;;5079061;28;20395;-80
2023/12/08 11:52:04;;;;;;;32.97;23.70;;;;;;;;;;5077843;28;20858;-80
2023/12/08 11:54:35;;;;;;;23.80;17.88;;;;;;;;;;5077581;28;20971;-80
2023/12/08 11:57:03;;;;;;;18.42;15.45;;;;;;;;;;5077460;28;20398;-80
2023/12/08 11:59:29;;;;;;;21.60;15.70;;;;;;;;;;5077883;28;20435;-80
2023/12/08 12:01:56;;;;;;;18.77;16.55;;;;;;;;;;5087973;28;20390;-81
2023/12/08 12:04:22;;;;;;;19.40;15.30;;;;;;;;;;5074056;28;20392;-81
2023/12/08 12:06:53;;;;;;;19.65;17.42;;;;;;;;;;5075887;28;20749;-80
2023/12/08 12:09:20;;;;;;;18.70;16.23;;;;;;;;;;5076408;28;20462;-81
2023/12/08 12:11:48;;;;;;;22.30;17.30;;;;;;;;;;5079993;28;20447;-81
2023/12/08 12:14:16;;;;;;;16.83;15.02;;;;;;;;;;5079788;28;20860;-81
2023/12/08 12:16:43;;;;;;;22.38;19.13;;;;;;;;;;5077381;28;20383;-78
2023/12/08 12:19:09;;;;;;;23.02;19.65;;;;;;;;;;5080123;28;20412;-78
2023/12/08 12:21:35;;;;;;;23.77;19.40;;;;;;;;;;5079937;28;20721;-81
2023/12/08 12:24:01;;;;;;;20.90;17.75;;;;;;;;;;5080161;28;20380;-81
2023/12/08 12:26:27;;;;;;;24.58;19.23;;;;;;;;;;5080225;28;20805;-80
2023/12/08 12:28:53;;;;;;;75.32;40.22;;;;;;;;;;5080013;28;20379;-81
2023/12/08 12:31:19;;;;;;;46.85;27.27;;;;;;;;;;5079884;28;20383;-81
2023/12/08 12:33:45;;;;;;;34.40;22.80;;;;;;;;;;5079502;28;20782;-81
2023/12/08 12:36:12;;;;;;;30.45;21.08;;;;;;;;;;5079875;28;20380;-81
2023/12/08 12:38:39;;;;;;;22.48;17.92;;;;;;;;;;5079791;28;20404;-81
2023/12/08 12:41:24;;;;;;;21.73;17.42;;;;;;;;;;5078963;28;20396;-81
2023/12/08 12:44:01;;;;;;;19.25;16.67;;;;;;;;;;5079181;28;20379;-81
2023/12/08 12:46:27;;;;;;;21.67;17.77;;;;;;;;;;5079886;28;20413;-81
2023/12/08 12:48:54;;;;;;;19.40;16.45;;;;;;;;;;5079953;28;20857;-81
2023/12/08 12:51:46;;;;;;;22.88;17.58;;;;;;;;;;5080833;28;20388;-81
2023/12/08 12:54:12;;;;;;;19.77;16.52;;;;;;;;;;5076189;28;20395;-82
2023/12/08 12:56:49;;;;;;;17.23;15.43;;;;;;;;;;5079758;28;20452;-81
2023/12/08 12:59:15;;;;;;;17.40;15.35;;;;;;;;;;5078987;28;20403;-81
2023/12/08 13:01:47;;;;;;;17.73;14.90;;;;;;;;;;5079208;28;20437;-81
2023/12/08 13:04:15;;;;;;;16.00;14.33;;;;;;;;;;5079563;28;20953;-81
2023/12/08 13:06:41;;;;;;;14.10;12.70;;;;;;;;;;5079235;28;20382;-81
2023/12/08 13:09:09;;;;;;;15.52;13.93;;;;;;;;;;5079108;28;20380;-81
2023/12/08 13:11:35;;;;;;;15.27;13.77;;;;;;;;;;5079099;28;20447;-81
2023/12/08 13:14:01;;;;;;;15.05;13.55;;;;;;;;;;5079317;28;20376;-81
2023/12/08 13:16:27;;;;;;;19.17;16.90;;;;;;;;;;5079192;28;20399;-81
2023/12/08 13:18:53;;;;;;;20.40;18.17;;;;;;;;;;5079024;28;20935;-81
2023/12/08 13:21:19;;;;;;;21.10;17.45;;;;;;;;;;5078613;28;20387;-81
2023/12/08 13:23:47;;;;;;;22.77;16.67;;;;;;;;;;5078638;28;20487;-81
2023/12/08 13:26:13;;;;;;;19.42;16.67;;;;;;;;;;5078464;28;20383;-81
2023/12/08 13:28:39;;;;;;;18.83;16.67;;;;;;;;;;5078670;28;20403;-81
2023/12/08 13:31:06;;;;;;;23.08;19.20;;;;;;;;;;5070080;28;20401;-81
2023/12/08 13:33:32;;;;;;;23.50;18.63;;;;;;;;;;5076232;28;20384;-81
2023/12/08 13:35:58;;;;;;;19.80;17.70;;;;;;;;;;5078591;28;20380;-81
2023/12/08 13:38:24;;;;;;;19.98;16.77;;;;;;;;;;5078024;28;20407;-81
2023/12/08 13:40:50;;;;;;;20.52;17.50;;;;;;;;;;5077995;28;20380;-81
2023/12/08 13:43:16;;;;;;;22.10;18.30;;;;;;;;;;5077991;28;20429;-79
2023/12/08 13:45:42;;;;;;;21.65;18.17;;;;;;;;;;5077514;28;20443;-81
2023/12/08 13:48:08;;;;;;;20.33;17.33;;;;;;;;;;5077475;28;20412;-79
2023/12/08 13:50:38;;;;;;;16.23;14.45;;;;;;;;;;5078179;28;20395;-81
2023/12/08 13:53:04;;;;;;;16.38;14.68;;;;;;;;;;5077208;28;20868;-81
2023/12/08 13:55:30;;;;;;;16.60;14.90;;;;;;;;;;5077997;28;20384;-81
2023/12/08 13:57:56;;;;;;;17.70;15.20;;;;;;;;;;5068568;28;20951;-79
2023/12/08 14:00:22;;;;;;;17.40;14.80;;;;;;;;;;5040132;28;20444;-80
2023/12/08 14:02:49;;;;;;;18.20;15.40;;;;;;;;;;5057819;28;20747;-80
2023/12/08 14:05:16;;;;;;;18.38;15.52;;;;;;;;;;5057111;28;20770;-81
2023/12/08 14:07:42;;;;;;;19.45;16.00;;;;;;;;;;5058233;28;20839;-80
2023/12/08 14:10:09;;;;;;;18.60;15.60;;;;;;;;;;5057459;28;20456;-79
2023/12/08 14:12:35;;;;;;;16.95;15.15;;;;;;;;;;5057477;28;20412;-79
2023/12/08 14:15:01;;;;;;;17.13;14.83;;;;;;;;;;5057711;28;20381;-81
2023/12/08 14:17:28;;;;;;;19.85;16.05;;;;;;;;;;5056769;28;20417;-81